Auburn, New Hampshire
Current Conditions -  °F | °C
As of 12:53 AM on Saturday 29 Nov 2014 (Local Time) from KMHT Reporting Station
Clear Clear  
Wind Chill: 20°   Ceiling: Unl
Heat Index: 20°   Visibility: 10mi
Dew Point: 12°   Wind: 3mph
Humidity: 71%   Direction: 230°SW
Pressure: 30.2"   Gusts: NA
Location:  43°N, 71.35°W
Report Text: KMHT 290553Z 23003KT 10SM CLR M07/M11 A3020 RMK AO2 SLP246 4/009 T10671111 11033 21078 51011
Loading
Personal Weather Stations






























Interactive Weather Map New forecast layout! Learn more

10-Day Weather Forecast

Advertisements
Track Severe Weather on mobile